Time;durP1;ratioP1;P1;durP2;ratioP2;P2;SDS_P1;SDS_P2;PMS_P1;PMS_P2;Temp;Humidity;BMP_temperature;BMP_pressure;BME280_temperature;BME280_humidity;BME280_pressure;Samples;Min_cycle;Max_cycle;Signal;HPM_P1;HPM_P2
2021/07/22 00:02:17;;;;;;;10.70;8.30;;;19.40;99.90;;;;;;5063743;28;20549;-79
2021/07/22 00:04:43;;;;;;;10.90;8.70;;;19.40;99.90;;;;;;5056406;28;20490;-79
2021/07/22 00:07:10;;;;;;;19.70;10.10;;;19.10;99.90;;;;;;5055367;28;20497;-79
2021/07/22 00:09:39;;;;;;;14.00;10.47;;;19.40;99.90;;;;;;5055895;28;20473;-78
2021/07/22 00:12:07;;;;;;;11.80;8.90;;;19.40;99.90;;;;;;5055676;28;20541;-79
2021/07/22 00:14:34;;;;;;;13.67;8.83;;;19.40;99.90;;;;;;5055473;28;20500;-79
2021/07/22 00:17:02;;;;;;;12.47;9.83;;;19.40;99.90;;;;;;5058381;28;20458;-78
2021/07/22 00:19:29;;;;;;;15.43;9.93;;;19.40;99.90;;;;;;5063580;28;20442;-78
2021/07/22 00:21:56;;;;;;;11.47;8.60;;;19.70;99.90;;;;;;5063483;28;20453;-78
2021/07/22 00:24:22;;;;;;;13.80;9.30;;;19.30;99.90;;;;;;5062273;28;21004;-78
2021/07/22 00:26:50;;;;;;;11.67;9.20;;;19.30;99.90;;;;;;5056243;28;20486;-79
2021/07/22 00:29:17;;;;;;;14.03;9.33;;;19.30;99.90;;;;;;5056267;28;20477;-79
2021/07/22 00:31:43;;;;;;;11.50;8.40;;;19.30;99.90;;;;;;5055155;28;20473;-78
2021/07/22 00:34:10;;;;;;;13.10;9.10;;;19.30;99.90;;;;;;5054777;28;20477;-77
2021/07/22 00:36:36;;;;;;;11.27;8.60;;;19.20;99.90;;;;;;5055205;28;20481;-78
2021/07/22 00:39:03;;;;;;;10.93;9.10;;;19.20;99.90;;;;;;5055047;28;20484;-78
2021/07/22 00:41:30;;;;;;;11.30;8.80;;;19.20;99.90;;;;;;5055598;28;20473;-78
2021/07/22 00:43:58;;;;;;;11.80;9.33;;;19.10;99.90;;;;;;5055673;28;20466;-78
2021/07/22 00:46:24;;;;;;;14.57;10.90;;;19.10;99.90;;;;;;5055037;28;20446;-79
2021/07/22 00:48:51;;;;;;;14.37;9.70;;;19.10;99.90;;;;;;5055461;28;20492;-79
2021/07/22 00:51:17;;;;;;;15.87;9.57;;;19.10;99.90;;;;;;5055663;28;20816;-79
2021/07/22 00:53:44;;;;;;;9.53;7.90;;;19.10;99.90;;;;;;5055796;28;20502;-78
2021/07/22 00:56:10;;;;;;;12.20;9.93;;;19.10;99.90;;;;;;5055402;28;20855;-78
2021/07/22 00:58:37;;;;;;;12.07;9.30;;;19.10;99.90;;;;;;5055632;28;20484;-79
2021/07/22 01:01:05;;;;;;;13.70;8.80;;;19.10;99.90;;;;;;5055231;28;20450;-78
2021/07/22 01:03:31;;;;;;;13.40;10.40;;;19.10;99.90;;;;;;5054818;28;20980;-78
2021/07/22 01:05:58;;;;;;;10.63;8.83;;;19.10;99.90;;;;;;5055403;28;20446;-78
2021/07/22 01:08:24;;;;;;;14.60;9.40;;;19.10;99.90;;;;;;5055371;28;20898;-78
2021/07/22 01:10:51;;;;;;;11.30;9.27;;;19.00;99.90;;;;;;5056361;28;20972;-79
2021/07/22 01:13:17;;;;;;;12.90;9.20;;;19.00;99.90;;;;;;5055920;28;20539;-78
2021/07/22 01:15:44;;;;;;;11.47;8.30;;;19.00;99.90;;;;;;5055735;28;20450;-79
2021/07/22 01:18:12;;;;;;;9.80;8.80;;;19.00;99.90;;;;;;5055845;28;20438;-79
2021/07/22 01:20:40;;;;;;;12.30;9.23;;;19.00;99.90;;;;;;5055113;28;20443;-79
2021/07/22 01:23:06;;;;;;;13.90;10.47;;;19.00;99.90;;;;;;5054393;28;20504;-79
2021/07/22 01:25:33;;;;;;;12.73;9.70;;;19.00;99.90;;;;;;5053860;28;20883;-78
2021/07/22 01:27:59;;;;;;;11.67;9.40;;;19.00;99.90;;;;;;5054286;28;20672;-78
2021/07/22 01:30:26;;;;;;;11.40;8.83;;;19.00;99.90;;;;;;5054047;28;20493;-80
2021/07/22 01:32:53;;;;;;;13.43;9.27;;;18.70;99.90;;;;;;5053562;28;20474;-78
2021/07/22 01:35:20;;;;;;;11.37;8.63;;;19.00;99.90;;;;;;5057427;28;20994;-78
2021/07/22 01:37:49;;;;;;;13.83;9.50;;;18.90;99.90;;;;;;5057910;28;20452;-78
2021/07/22 01:40:17;;;;;;;10.93;9.07;;;19.00;99.90;;;;;;5058921;28;20450;-77
2021/07/22 01:42:43;;;;;;;11.27;8.80;;;19.00;99.90;;;;;;5057982;28;20763;-78
2021/07/22 01:45:12;;;;;;;11.87;9.80;;;19.00;99.90;;;;;;5060430;28;20481;-78
2021/07/22 01:47:38;;;;;;;11.50;9.27;;;19.00;99.90;;;;;;5066804;28;20477;-77
2021/07/22 01:50:06;;;;;;;11.63;9.87;;;19.00;99.90;;;;;;5065023;28;20446;-77
2021/07/22 01:52:33;;;;;;;12.53;9.00;;;19.00;99.90;;;;;;5065889;28;20450;-78
2021/07/22 01:55:00;;;;;;;13.80;10.00;;;19.00;99.90;;;;;;5069542;28;20573;-78
2021/07/22 01:57:27;;;;;;;12.77;9.63;;;18.90;99.90;;;;;;5064271;28;20453;-78
2021/07/22 01:59:54;;;;;;;17.00;10.07;;;18.70;99.90;;;;;;5066518;28;20500;-78
2021/07/22 02:02:20;;;;;;;10.60;9.03;;;18.90;99.90;;;;;;5068443;28;20444;-77
2021/07/22 02:04:47;;;;;;;13.43;11.50;;;19.00;99.90;;;;;;5068281;28;20473;-78
2021/07/22 02:07:13;;;;;;;14.80;9.37;;;19.00;99.90;;;;;;5067270;28;20501;-78
2021/07/22 02:09:40;;;;;;;16.00;10.57;;;19.00;99.90;;;;;;5064543;28;20445;-78
2021/07/22 02:12:09;;;;;;;12.40;10.40;;;18.90;99.90;;;;;;5065135;28;20446;-78
2021/07/22 02:14:36;;;;;;;12.47;11.07;;;18.90;99.90;;;;;;5066709;28;20466;-78
2021/07/22 02:17:02;;;;;;;15.98;10.02;;;18.90;99.90;;;;;;5062004;28;20824;-78
2021/07/22 02:19:29;;;;;;;13.73;11.33;;;18.90;99.90;;;;;;5058182;28;20238;-79
2021/07/22 02:21:55;;;;;;;14.13;10.73;;;18.90;99.90;;;;;;5057566;28;20533;-78
2021/07/22 02:24:22;;;;;;;13.70;9.80;;;18.90;99.90;;;;;;5057555;28;20492;-79
2021/07/22 02:26:49;;;;;;;14.50;10.93;;;18.90;99.90;;;;;;5056934;28;20450;-78
2021/07/22 02:29:17;;;;;;;13.07;9.90;;;18.90;99.90;;;;;;5057570;28;20438;-78
2021/07/22 02:31:43;;;;;;;12.67;9.67;;;18.90;99.90;;;;;;5057428;28;20505;-78
2021/07/22 02:34:10;;;;;;;16.30;10.33;;;18.90;99.90;;;;;;5056900;28;21024;-78
2021/07/22 02:36:36;;;;;;;14.20;10.33;;;18.90;99.90;;;;;;5058019;28;20484;-78
2021/07/22 02:39:03;;;;;;;15.50;10.83;;;18.90;99.90;;;;;;5057519;28;20453;-79
2021/07/22 02:41:30;;;;;;;16.40;11.40;;;18.90;99.90;;;;;;5057261;28;20500;-79
2021/07/22 02:43:57;;;;;;;14.93;11.73;;;18.90;99.90;;;;;;5056870;28;20462;-78
2021/07/22 02:46:25;;;;;;;16.97;11.30;;;18.80;99.90;;;;;;5057029;28;20457;-79
2021/07/22 02:48:56;;;;;;;16.73;10.37;;;18.80;99.90;;;;;;5056734;28;20577;-78
2021/07/22 02:51:22;;;;;;;13.50;10.20;;;18.80;99.90;;;;;;5057566;28;20439;-79
2021/07/22 02:53:49;;;;;;;12.77;9.97;;;18.90;99.90;;;;;;5059121;28;20497;-77
2021/07/22 02:56:16;;;;;;;12.53;9.87;;;18.80;99.90;;;;;;5061663;28;20499;-79
2021/07/22 02:58:42;;;;;;;12.35;10.02;;;18.80;99.90;;;;;;5056370;28;20477;-78
2021/07/22 03:01:09;;;;;;;15.77;10.60;;;18.80;99.90;;;;;;5061269;28;20245;-77
2021/07/22 03:03:37;;;;;;;11.50;9.37;;;18.80;99.90;;;;;;5061772;28;20544;-77
2021/07/22 03:06:03;;;;;;;11.87;10.23;;;18.90;99.90;;;;;;5062427;28;20900;-77
2021/07/22 03:08:30;;;;;;;13.43;9.73;;;18.90;99.90;;;;;;5058051;28;20556;-78
2021/07/22 03:10:57;;;;;;;12.27;10.10;;;18.90;99.90;;;;;;5058710;28;20486;-77
2021/07/22 03:13:23;;;;;;;15.10;9.00;;;18.80;99.90;;;;;;5061240;28;20882;-77
2021/07/22 03:15:50;;;;;;;15.57;10.80;;;18.80;99.90;;;;;;5061260;28;20461;-78
2021/07/22 03:18:16;;;;;;;12.70;9.60;;;18.80;99.90;;;;;;5055957;28;20477;-77
2021/07/22 03:20:44;;;;;;;13.13;10.67;;;18.70;99.90;;;;;;5056694;28;20499;-78
2021/07/22 03:23:11;;;;;;;16.63;9.63;;;18.70;99.90;;;;;;5056827;28;20545;-78
2021/07/22 03:25:37;;;;;;;11.60;10.10;;;18.70;99.90;;;;;;5057030;28;20446;-77
2021/07/22 03:28:05;;;;;;;13.10;9.60;;;18.70;99.90;;;;;;5056268;28;20905;-78
2021/07/22 03:30:31;;;;;;;11.90;10.10;;;18.60;99.90;;;;;;5055747;28;20815;-78
2021/07/22 03:32:58;;;;;;;11.17;9.17;;;18.70;99.90;;;;;;5057563;28;20493;-76
2021/07/22 03:35:24;;;;;;;13.57;8.10;;;18.70;99.90;;;;;;5058732;28;20433;-77
2021/07/22 03:37:52;;;;;;;14.63;8.90;;;18.70;99.90;;;;;;5056096;28;20881;-78
2021/07/22 03:40:19;;;;;;;12.37;9.67;;;18.70;99.90;;;;;;5055990;28;20488;-78
2021/07/22 03:42:46;;;;;;;15.30;9.10;;;18.90;99.90;;;;;;5056160;28;20935;-78
2021/07/22 03:45:13;;;;;;;20.80;9.97;;;18.70;99.90;;;;;;5056797;28;21035;-78
2021/07/22 03:47:40;;;;;;;12.20;10.20;;;18.70;99.90;;;;;;5055679;28;20488;-78
2021/07/22 03:50:07;;;;;;;15.20;11.30;;;18.70;99.90;;;;;;5055429;28;20484;-78
2021/07/22 03:52:34;;;;;;;10.70;9.50;;;18.60;99.90;;;;;;5055233;28;20478;-77
2021/07/22 03:55:02;;;;;;;15.53;9.77;;;18.60;99.90;;;;;;5055495;28;20494;-78
2021/07/22 03:57:28;;;;;;;14.60;9.90;;;18.60;99.90;;;;;;5054686;28;20945;-78
2021/07/22 03:59:55;;;;;;;15.80;10.30;;;18.60;99.90;;;;;;5054971;28;20454;-77
2021/07/22 04:02:21;;;;;;;17.13;10.60;;;18.50;99.90;;;;;;5055140;28;20862;-77
2021/07/22 04:04:48;;;;;;;13.67;10.83;;;18.60;99.90;;;;;;5054782;28;20504;-78
2021/07/22 04:07:14;;;;;;;13.37;10.17;;;18.50;99.90;;;;;;5054753;28;20484;-78
2021/07/22 04:09:41;;;;;;;13.47;9.97;;;18.60;99.90;;;;;;5054789;28;20528;-78
2021/07/22 04:12:10;;;;;;;13.47;10.60;;;18.60;99.90;;;;;;5054711;28;20537;-78
2021/07/22 04:14:36;;;;;;;15.57;11.00;;;18.60;99.90;;;;;;5054940;28;20509;-78
2021/07/22 04:17:03;;;;;;;13.20;9.73;;;18.60;99.90;;;;;;5054770;28;20484;-78
2021/07/22 04:19:29;;;;;;;13.97;9.87;;;18.50;99.90;;;;;;5054165;28;20446;-77
2021/07/22 04:21:56;;;;;;;13.87;9.63;;;18.50;99.90;;;;;;5054502;28;20477;-78
2021/07/22 04:24:22;;;;;;;12.37;9.77;;;18.50;99.90;;;;;;5054516;28;20506;-78
2021/07/22 04:26:49;;;;;;;12.60;9.40;;;18.50;99.90;;;;;;5054580;28;20450;-78
2021/07/22 04:29:17;;;;;;;14.27;10.50;;;18.50;99.90;;;;;;5054230;28;21054;-78
2021/07/22 04:31:43;;;;;;;14.70;9.70;;;18.40;99.90;;;;;;5053882;28;20478;-78
2021/07/22 04:34:10;;;;;;;12.37;8.67;;;18.40;99.90;;;;;;5056894;28;20517;-77
2021/07/22 04:36:36;;;;;;;15.47;10.30;;;18.40;99.90;;;;;;5057801;28;20442;-78
2021/07/22 04:39:03;;;;;;;11.90;9.23;;;18.50;99.90;;;;;;5056592;28;20445;-78
2021/07/22 04:41:29;;;;;;;13.47;9.73;;;18.50;99.90;;;;;;5055405;28;20277;-78
2021/07/22 04:43:56;;;;;;;18.10;10.10;;;18.50;99.90;;;;;;5056099;28;20462;-77
2021/07/22 04:46:24;;;;;;;15.10;10.07;;;18.60;99.90;;;;;;5056538;28;20482;-78
2021/07/22 04:48:50;;;;;;;15.37;10.53;;;18.60;99.90;;;;;;5053946;28;21074;-77
2021/07/22 04:51:17;;;;;;;19.40;10.10;;;18.70;99.90;;;;;;5054196;28;21011;-77
2021/07/22 04:53:43;;;;;;;16.00;10.40;;;18.70;99.90;;;;;;5053701;28;20840;-77
2021/07/22 04:56:10;;;;;;;15.33;10.63;;;18.70;99.90;;;;;;5054021;28;20529;-78
2021/07/22 04:58:36;;;;;;;15.00;11.03;;;18.70;99.90;;;;;;5054553;28;20472;-78
2021/07/22 05:01:04;;;;;;;14.77;11.50;;;18.80;99.90;;;;;;5054450;28;20481;-78
2021/07/22 05:03:32;;;;;;;12.10;10.10;;;18.40;99.90;;;;;;5054267;28;20844;-78
2021/07/22 05:05:59;;;;;;;15.30;10.37;;;18.70;99.90;;;;;;5057674;28;20481;-77
2021/07/22 05:08:25;;;;;;;26.77;13.23;;;18.80;99.90;;;;;;5053239;28;20509;-78
2021/07/22 05:10:52;;;;;;;12.63;10.50;;;18.90;99.90;;;;;;5053475;28;20504;-77
2021/07/22 05:13:19;;;;;;;14.47;10.53;;;18.90;99.90;;;;;;5053762;28;20844;-77
2021/07/22 05:15:46;;;;;;;14.50;11.17;;;18.90;99.90;;;;;;5053433;28;20477;-77
2021/07/22 05:18:12;;;;;;;12.60;9.80;;;18.90;99.90;;;;;;5053931;28;20814;-78
2021/07/22 05:20:40;;;;;;;18.60;10.90;;;19.00;99.90;;;;;;5053490;28;20861;-77
2021/07/22 05:23:06;;;;;;;19.47;12.47;;;19.10;99.90;;;;;;5053492;28;20501;-78
2021/07/22 05:25:33;;;;;;;14.90;11.93;;;19.00;99.90;;;;;;5053463;28;20474;-77
2021/07/22 05:27:59;;;;;;;17.23;11.20;;;19.00;99.90;;;;;;5053970;28;20517;-77
2021/07/22 05:30:26;;;;;;;11.87;10.00;;;19.00;99.90;;;;;;5053840;28;20477;-78
2021/07/22 05:32:52;;;;;;;12.10;9.93;;;18.70;99.90;;;;;;5053871;28;20605;-78
2021/07/22 05:35:19;;;;;;;11.10;9.17;;;19.00;99.90;;;;;;5053819;28;20466;-78
2021/07/22 05:37:47;;;;;;;12.20;10.67;;;19.00;99.90;;;;;;5053848;28;20968;-78
2021/07/22 05:40:13;;;;;;;12.30;9.60;;;19.00;99.90;;;;;;5055864;28;20478;-78
2021/07/22 05:42:40;;;;;;;11.17;8.77;;;18.70;99.90;;;;;;5054524;28;20481;-78
2021/07/22 05:45:08;;;;;;;13.10;9.47;;;18.90;99.90;;;;;;5054053;28;20446;-78
2021/07/22 05:47:34;;;;;;;13.20;9.40;;;18.90;99.90;;;;;;5053921;28;20484;-78
2021/07/22 05:50:01;;;;;;;10.87;9.40;;;19.00;99.90;;;;;;5053877;28;20510;-78
2021/07/22 05:52:27;;;;;;;11.70;9.60;;;19.10;99.90;;;;;;5055386;28;20438;-79
2021/07/22 05:54:56;;;;;;;13.20;9.77;;;19.20;99.90;;;;;;5055013;28;20490;-79
2021/07/22 05:57:23;;;;;;;18.13;12.17;;;19.20;99.90;;;;;;5055716;28;20489;-78
2021/07/22 05:59:49;;;;;;;11.60;9.80;;;19.30;99.90;;;;;;5057339;28;20474;-79
2021/07/22 06:02:16;;;;;;;14.73;10.27;;;19.20;99.90;;;;;;5060658;28;20452;-78
2021/07/22 06:04:42;;;;;;;12.43;10.10;;;19.20;99.90;;;;;;5061049;28;20461;-78
2021/07/22 06:07:09;;;;;;;10.50;8.77;;;19.00;99.90;;;;;;5059561;28;20453;-78
2021/07/22 06:09:35;;;;;;;13.10;8.57;;;19.10;99.90;;;;;;5055695;28;20506;-78
2021/07/22 06:12:04;;;;;;;11.90;9.10;;;19.10;99.90;;;;;;5055288;28;20537;-78
2021/07/22 06:14:30;;;;;;;12.13;9.43;;;19.20;99.90;;;;;;5055080;28;20489;-78
2021/07/22 06:16:57;;;;;;;15.20;9.63;;;19.20;99.90;;;;;;5055003;28;20478;-78
2021/07/22 06:19:23;;;;;;;10.07;8.50;;;19.20;99.90;;;;;;5055699;28;20474;-79
2021/07/22 06:21:50;;;;;;;10.67;7.90;;;19.20;99.90;;;;;;5059313;28;20485;-79
2021/07/22 06:24:16;;;;;;;12.60;10.00;;;19.30;99.90;;;;;;5065083;28;20466;-77
2021/07/22 06:26:43;;;;;;;10.50;9.37;;;19.40;99.90;;;;;;5064412;28;20453;-76
2021/07/22 06:29:11;;;;;;;13.80;8.90;;;19.40;99.90;;;;;;5063487;28;20484;-77
2021/07/22 06:31:38;;;;;;;14.23;9.63;;;19.40;99.90;;;;;;5063488;28;20481;-77
2021/07/22 06:34:04;;;;;;;15.20;10.13;;;19.40;99.90;;;;;;5063886;28;20531;-76
2021/07/22 06:36:31;;;;;;;12.87;9.10;;;19.60;99.90;;;;;;5065220;28;20450;-77
2021/07/22 06:38:58;;;;;;;10.20;9.13;;;19.40;99.90;;;;;;5064321;28;20468;-78
2021/07/22 06:41:24;;;;;;;22.20;10.13;;;19.40;99.90;;;;;;5066408;28;20446;-79
2021/07/22 06:43:51;;;;;;;16.33;9.40;;;19.50;99.90;;;;;;5062303;28;20461;-79
2021/07/22 06:46:18;;;;;;;15.43;9.03;;;19.60;99.90;;;;;;5059219;28;20466;-79
2021/07/22 06:48:47;;;;;;;11.13;9.30;;;19.60;99.90;;;;;;5056604;28;20509;-79
2021/07/22 06:51:14;;;;;;;13.50;9.60;;;19.80;99.90;;;;;;5058753;28;20522;-78
2021/07/22 06:53:42;;;;;;;10.30;8.07;;;19.80;99.90;;;;;;5066556;28;20469;-79
2021/07/22 06:56:08;;;;;;;10.57;8.27;;;19.80;99.90;;;;;;5067831;28;20478;-80
2021/07/22 06:58:35;;;;;;;16.87;9.47;;;19.80;99.90;;;;;;5066942;28;20439;-79
2021/07/22 07:01:01;;;;;;;17.50;10.63;;;19.80;99.90;;;;;;5064352;28;20442;-79
2021/07/22 07:03:29;;;;;;;11.57;8.70;;;19.90;99.90;;;;;;5057757;28;21016;-79
2021/07/22 07:05:56;;;;;;;10.67;8.90;;;19.90;99.90;;;;;;5057573;28;20461;-79
2021/07/22 07:08:23;;;;;;;14.03;8.50;;;;;;;;;;5058601;28;20476;-79
2021/07/22 07:10:49;;;;;;;11.43;8.57;;;20.00;99.90;;;;;;5058225;28;20446;-79
2021/07/22 07:13:16;;;;;;;9.60;8.00;;;20.10;99.90;;;;;;5058817;28;20469;-78
2021/07/22 07:15:42;;;;;;;9.40;7.50;;;20.10;99.90;;;;;;5058502;28;20825;-80
2021/07/22 07:18:09;;;;;;;9.17;7.57;;;20.20;99.90;;;;;;5057832;28;20443;-80
2021/07/22 07:20:37;;;;;;;13.77;8.50;;;20.20;99.90;;;;;;5057582;28;20465;-80
2021/07/22 07:23:03;;;;;;;9.80;8.40;;;20.10;99.90;;;;;;5065932;28;20465;-78
2021/07/22 07:25:30;;;;;;;8.47;7.67;;;20.10;99.90;;;;;;5071375;28;20465;-77
2021/07/22 07:27:57;;;;;;;14.00;10.57;;;20.10;99.90;;;;;;5074048;28;20446;-77
2021/07/22 07:30:24;;;;;;;13.97;10.73;;;20.30;99.90;;;;;;5063930;28;20219;-79
2021/07/22 07:32:53;;;;;;;8.60;7.70;;;20.30;99.90;;;;;;5059184;28;20550;-79
2021/07/22 07:35:19;;;;;;;11.10;8.97;;;20.40;99.90;;;;;;5060980;28;20430;-78
2021/07/22 07:37:47;;;;;;;10.93;8.60;;;20.50;99.90;;;;;;5059158;28;20450;-81
2021/07/22 07:40:15;;;;;;;10.40;7.30;;;20.60;99.90;;;;;;5059410;28;20525;-80
2021/07/22 07:42:41;;;;;;;11.30;8.60;;;20.80;99.90;;;;;;5059225;28;20482;-80
2021/07/22 07:45:09;;;;;;;13.43;8.97;;;20.90;99.90;;;;;;5060427;28;20463;-81
2021/07/22 07:47:36;;;;;;;10.20;7.77;;;20.90;99.90;;;;;;5059507;28;20940;-80
2021/07/22 07:50:03;;;;;;;10.10;8.00;;;20.90;99.90;;;;;;5059234;28;20470;-80
2021/07/22 07:52:31;;;;;;;10.73;7.47;;;20.90;99.90;;;;;;5062879;28;20448;-80
2021/07/22 07:54:59;;;;;;;7.73;6.70;;;21.00;99.90;;;;;;5063501;28;20238;-80
2021/07/22 07:57:26;;;;;;;9.87;6.97;;;21.10;99.90;;;;;;5068854;28;20454;-81
2021/07/22 07:59:52;;;;;;;9.77;7.37;;;21.00;99.90;;;;;;5069696;28;20446;-80
2021/07/22 08:02:19;;;;;;;8.70;7.77;;;20.90;99.90;;;;;;5068803;28;20434;-80
2021/07/22 08:04:45;;;;;;;10.43;8.50;;;20.90;99.90;;;;;;5067377;28;20991;-80
2021/07/22 08:07:12;;;;;;;10.77;8.13;;;20.90;99.90;;;;;;5065175;28;20442;-79
2021/07/22 08:09:38;;;;;;;11.43;8.27;;;21.00;99.90;;;;;;5059191;28;20478;-80
2021/07/22 08:12:07;;;;;;;8.20;7.37;;;21.00;99.90;;;;;;5061002;28;20488;-81
2021/07/22 08:14:36;;;;;;;10.63;8.13;;;21.20;99.90;;;;;;5061691;28;20996;-80
2021/07/22 08:17:04;;;;;;;11.30;8.45;;;21.30;99.90;;;;;;5059483;28;20449;-80
2021/07/22 08:19:31;;;;;;;13.43;8.00;;;21.30;99.90;;;;;;5060911;28;20666;-81
2021/07/22 08:21:57;;;;;;;10.40;7.97;;;21.40;99.90;;;;;;5061491;28;20464;-80
2021/07/22 08:24:24;;;;;;;10.00;8.63;;;21.40;99.90;;;;;;5061654;28;20527;-82
2021/07/22 08:26:50;;;;;;;11.37;8.27;;;21.40;99.90;;;;;;5061190;28;20442;-81
2021/07/22 08:29:18;;;;;;;13.30;8.03;;;21.30;99.90;;;;;;5061427;28;20524;-80
2021/07/22 08:31:45;;;;;;;12.50;8.23;;;21.30;99.90;;;;;;5060837;28;20480;-80
2021/07/22 08:34:14;;;;;;;8.17;7.00;;;21.10;99.90;;;;;;5060423;28;20521;-79
2021/07/22 08:36:41;;;;;;;9.13;6.93;;;21.20;99.90;;;;;;5060390;28;20519;-79
2021/07/22 08:39:08;;;;;;;8.93;7.57;;;21.20;99.90;;;;;;5060314;28;20499;-80
2021/07/22 08:41:34;;;;;;;9.10;7.60;;;21.20;99.90;;;;;;5058003;28;20485;-79
2021/07/22 08:44:03;;;;;;;8.00;7.20;;;21.30;99.90;;;;;;5060706;28;20508;-78
2021/07/22 08:46:34;;;;;;;10.70;7.80;;;21.50;99.90;;;;;;5060829;28;20439;-78
2021/07/22 08:49:01;;;;;;;8.70;6.80;;;21.50;99.90;;;;;;5057381;28;20434;-78
2021/07/22 08:51:28;;;;;;;8.40;7.33;;;21.70;99.90;;;;;;5061083;28;20446;-78
2021/07/22 08:53:54;;;;;;;11.97;8.90;;;21.90;99.90;;;;;;5061710;28;20462;-78
2021/07/22 08:56:24;;;;;;;9.47;8.00;;;22.00;99.90;;;;;;5063091;28;20523;-78
2021/07/22 08:58:51;;;;;;;11.60;8.77;;;22.00;99.90;;;;;;5058082;28;20453;-78
2021/07/22 09:01:19;;;;;;;9.30;7.60;;;22.20;99.90;;;;;;5057197;28;20450;-78
2021/07/22 09:03:47;;;;;;;10.87;7.50;;;22.20;99.90;;;;;;5059267;28;20490;-77
2021/07/22 09:06:14;;;;;;;8.27;7.30;;;22.20;99.90;;;;;;5074039;28;20457;-77
2021/07/22 09:08:41;;;;;;;9.53;7.80;;;22.30;99.90;;;;;;5071530;28;20557;-78
2021/07/22 09:11:08;;;;;;;9.17;7.47;;;22.30;99.90;;;;;;5063539;28;20565;-80
2021/07/22 09:13:35;;;;;;;8.43;7.50;;;22.10;99.90;;;;;;5058327;28;20591;-80
2021/07/22 09:16:02;;;;;;;10.93;7.20;;;22.10;99.90;;;;;;5057884;28;20458;-79
2021/07/22 09:18:34;;;;;;;8.43;7.50;;;22.10;99.90;;;;;;5058917;28;20481;-80
2021/07/22 09:21:18;;;;;;;8.67;7.77;;;22.00;99.90;;;;;;5059215;28;20466;-78
2021/07/22 09:24:04;;;;;;;10.00;6.97;;;21.90;99.90;;;;;;5066387;28;20466;-79
2021/07/22 09:26:32;;;;;;;8.03;7.17;;;21.90;99.90;;;;;;5063172;28;20434;-77
2021/07/22 09:29:03;;;;;;;10.17;7.30;;;21.80;99.90;;;;;;5062971;28;20445;-78
2021/07/22 09:31:30;;;;;;;7.60;6.90;;;21.80;99.90;;;;;;5058001;28;20444;-79
2021/07/22 09:33:57;;;;;;;8.60;7.80;;;21.90;99.90;;;;;;5054723;28;21060;-79
2021/07/22 09:36:34;;;;;;;12.63;8.70;;;21.90;99.90;;;;;;5055577;28;20976;-80
2021/07/22 09:39:18;;;;;;;10.17;8.77;;;22.10;99.90;;;;;;5055866;28;20446;-79
2021/07/22 09:41:45;;;;;;;11.50;8.30;;;22.30;99.90;;;;;;5055341;28;20476;-79
2021/07/22 09:44:28;;;;;;;9.93;7.37;;;22.50;99.90;;;;;;5054719;28;20470;-79
2021/07/22 09:46:54;;;;;;;11.30;8.97;;;22.60;99.90;;;;;;5054935;28;20431;-79
2021/07/22 09:49:29;;;;;;;10.68;8.45;;;22.70;99.90;;;;;;5055446;28;20469;-78
2021/07/22 09:52:01;;;;;;;8.60;7.70;;;22.80;99.90;;;;;;5055046;28;20195;-79
2021/07/22 09:54:34;;;;;;;9.48;7.32;;;22.90;99.90;;;;;;5056459;28;20526;-79
2021/07/22 09:57:03;;;;;;;13.60;11.47;;;22.70;99.90;;;;;;5060790;28;20370;-80
2021/07/22 09:59:30;;;;;;;16.80;14.97;;;22.80;99.90;;;;;;5059630;28;20489;-78
2021/07/22 10:02:05;;;;;;;11.40;8.90;;;22.80;99.90;;;;;;5058580;28;20541;-77
2021/07/22 10:04:32;;;;;;;8.40;7.43;;;22.90;99.90;;;;;;5058488;28;20477;-78
2021/07/22 10:07:02;;;;;;;8.80;7.50;;;23.00;99.90;;;;;;5059499;28;20518;-79
2021/07/22 10:09:34;;;;;;;7.10;6.40;;;22.90;99.90;;;;;;5058779;28;20513;-79
2021/07/22 10:12:02;;;;;;;7.73;6.33;;;22.80;99.90;;;;;;5061457;28;20422;-78
2021/07/22 10:14:29;;;;;;;10.30;7.87;;;22.80;99.90;;;;;;5066623;28;20476;-79
2021/07/22 10:17:00;;;;;;;10.50;6.83;;;22.70;99.90;;;;;;5066747;28;20434;-77
2021/07/22 10:19:26;;;;;;;8.90;7.17;;;22.60;99.90;;;;;;5061982;28;20467;-79
2021/07/22 10:21:53;;;;;;;10.57;9.10;;;22.50;99.90;;;;;;5059778;28;20538;-80
2021/07/22 10:24:21;;;;;;;8.70;7.80;;;22.40;99.90;;;;;;5060005;28;20502;-78
2021/07/22 10:26:49;;;;;;;8.33;7.10;;;22.40;99.90;;;;;;5059005;28;20487;-79
2021/07/22 10:29:15;;;;;;;8.40;7.47;;;22.50;99.90;;;;;;5060090;28;20450;-79
2021/07/22 10:31:46;;;;;;;7.80;6.97;;;22.50;99.90;;;;;;5058783;28;20477;-79
2021/07/22 10:34:13;;;;;;;7.60;6.90;;;22.50;99.90;;;;;;5059726;28;20905;-77
2021/07/22 10:36:43;;;;;;;7.53;6.77;;;22.50;99.90;;;;;;5058067;28;20858;-79
2021/07/22 10:39:09;;;;;;;8.57;7.70;;;22.60;99.90;;;;;;5057619;28;20478;-79
2021/07/22 10:41:40;;;;;;;10.77;6.60;;;22.60;99.90;;;;;;5057860;28;20758;-79
2021/07/22 10:44:07;;;;;;;8.60;7.10;;;22.60;99.90;;;;;;5057944;28;20539;-79
2021/07/22 10:46:54;;;;;;;8.33;7.37;;;22.60;99.90;;;;;;5058520;28;20477;-79
2021/07/22 10:49:21;;;;;;;10.50;8.40;;;22.50;99.90;;;;;;5058138;28;20912;-79
2021/07/22 10:51:47;;;;;;;8.63;7.10;;;22.50;99.90;;;;;;5057498;28;20869;-79
2021/07/22 10:54:45;;;;;;;8.40;7.50;;;22.40;99.90;;;;;;5057890;28;20472;-80
2021/07/22 10:57:37;;;;;;;9.87;7.50;;;22.20;99.90;;;;;;5058664;28;20537;-78
2021/07/22 11:00:05;;;;;;;9.30;7.07;;;22.00;99.90;;;;;;5062699;28;20426;-77
2021/07/22 11:02:45;;;;;;;8.77;7.23;;;21.90;99.90;;;;;;5061978;28;20536;-78
2021/07/22 11:05:44;;;;;;;8.83;7.53;;;22.00;99.90;;;;;;5061712;28;20449;-78
2021/07/22 11:08:20;;;;;;;9.30;7.27;;;22.00;99.90;;;;;;5061712;28;20450;-78
2021/07/22 11:10:51;;;;;;;11.33;7.97;;;21.90;99.90;;;;;;5065363;28;20497;-77
2021/07/22 11:13:48;;;;;;;9.97;8.37;;;21.80;99.90;;;;;;5064180;28;20463;-78
2021/07/22 11:16:22;;;;;;;12.93;8.77;;;21.80;99.90;;;;;;5062065;28;20481;-78
2021/07/22 11:18:50;;;;;;;7.73;6.93;;;21.70;99.90;;;;;;5059243;28;20454;-79
2021/07/22 11:21:19;;;;;;;8.27;7.47;;;21.70;99.90;;;;;;5057739;28;20445;-78
2021/07/22 11:23:56;;;;;;;8.87;7.23;;;21.70;99.90;;;;;;5057381;28;20454;-78
2021/07/22 11:26:24;;;;;;;8.40;7.30;;;21.70;99.90;;;;;;5065706;28;20456;-79
2021/07/22 11:28:51;;;;;;;13.10;8.60;;;21.70;99.90;;;;;;5058796;28;20585;-79
2021/07/22 11:31:18;;;;;;;13.80;9.70;;;21.70;99.90;;;;;;5057424;28;20511;-79
2021/07/22 11:33:45;;;;;;;13.90;8.40;;;21.60;99.90;;;;;;5072784;22;20477;-78
2021/07/22 11:36:14;;;;;;;11.33;8.73;;;21.70;99.90;;;;;;5069114;28;20440;-80
2021/07/22 11:38:41;;;;;;;10.10;8.77;;;21.70;99.90;;;;;;5073356;28;20465;-80
2021/07/22 11:41:12;;;;;;;13.07;9.03;;;21.70;99.90;;;;;;5073073;28;20442;-80
2021/07/22 11:43:41;;;;;;;10.97;8.60;;;21.60;99.90;;;;;;5072354;28;20470;-80
2021/07/22 11:46:10;;;;;;;10.07;8.90;;;21.50;99.90;;;;;;5073210;28;20447;-80
2021/07/22 11:48:38;;;;;;;9.10;7.67;;;21.60;99.90;;;;;;5073236;28;20437;-80
2021/07/22 11:51:07;;;;;;;10.73;8.03;;;21.60;99.90;;;;;;5072761;28;20553;-80
2021/07/22 11:53:35;;;;;;;11.03;8.60;;;21.30;99.90;;;;;;5070063;28;20920;-79
2021/07/22 11:56:13;;;;;;;9.47;8.50;;;21.60;99.90;;;;;;5070428;28;20435;-80
2021/07/22 11:58:40;;;;;;;9.10;8.20;;;21.70;99.90;;;;;;5070482;28;20430;-79
2021/07/22 12:01:09;;;;;;;15.67;8.53;;;21.70;99.90;;;;;;5066555;28;20472;-80
2021/07/22 12:03:36;;;;;;;11.70;8.10;;;21.60;99.90;;;;;;5062366;28;20478;-79
2021/07/22 12:06:03;;;;;;;9.00;8.03;;;21.70;99.90;;;;;;5062910;28;20446;-80
2021/07/22 12:08:29;;;;;;;10.33;8.20;;;21.70;99.90;;;;;;5061148;28;20480;-80
2021/07/22 12:11:00;;;;;;;11.67;9.20;;;21.70;99.90;;;;;;5059448;28;20490;-79
2021/07/22 12:13:26;;;;;;;8.80;7.60;;;21.70;99.90;;;;;;5059695;28;20446;-81
2021/07/22 12:15:53;;;;;;;12.67;9.37;;;21.80;99.90;;;;;;5059077;28;20445;-81
2021/07/22 12:18:24;;;;;;;11.50;9.10;;;21.80;99.90;;;;;;5057756;28;20485;-80
2021/07/22 12:20:51;;;;;;;10.90;9.80;;;21.80;99.90;;;;;;5058992;28;20609;-81
2021/07/22 12:23:33;;;;;;;11.20;9.10;;;21.90;99.90;;;;;;5057926;28;20450;-80
2021/07/22 12:26:02;;;;;;;10.20;8.40;;;21.90;99.90;;;;;;5057960;28;20439;-80
2021/07/22 12:28:29;;;;;;;9.30;8.27;;;21.90;99.90;;;;;;5060392;28;20457;-80
2021/07/22 12:30:56;;;;;;;9.10;7.67;;;21.90;99.90;;;;;;5065163;28;20489;-80
2021/07/22 12:33:26;;;;;;;12.00;8.10;;;22.40;99.90;;;;;;5070393;28;20892;-80
2021/07/22 12:35:53;;;;;;;14.27;9.60;;;22.10;99.90;;;;;;5072167;28;20461;-82
2021/07/22 12:38:26;;;;;;;9.33;8.20;;;22.10;99.90;;;;;;5069917;28;20508;-82
2021/07/22 12:41:09;;;;;;;12.90;9.37;;;22.10;99.90;;;;;;5058573;28;20536;-82
2021/07/22 12:43:47;;;;;;;10.70;9.57;;;22.40;99.90;;;;;;5057252;28;20438;-81